createdAt,value
2022-11-01T00:09:35.607Z,12.87
2022-11-01T00:13:02.293Z,12.90
2022-11-01T00:16:02.800Z,12.77
2022-11-01T00:18:40.778Z,12.87
2022-11-01T00:22:02.897Z,12.43
2022-11-01T00:25:10.246Z,14.30
2022-11-01T00:28:17.623Z,11.73
2022-11-01T00:30:58.306Z,12.23
2022-11-01T00:33:35.389Z,12.20
2022-11-01T00:36:05.993Z,12.13
2022-11-01T00:38:46.281Z,13.17
2022-11-01T00:41:21.135Z,12.17
2022-11-01T00:43:53.426Z,11.60
2022-11-01T00:46:37.247Z,13.47
2022-11-01T00:52:03.226Z,12.30
2022-11-01T00:54:31.625Z,11.77
2022-11-01T00:57:01.252Z,14.10
2022-11-01T00:59:33.737Z,11.73
2022-11-01T01:02:02.417Z,12.30
2022-11-01T01:04:59.060Z,12.97
2022-11-01T01:07:31.859Z,12.80
2022-11-01T01:10:44.859Z,12.07
2022-11-01T01:19:28.777Z,13.57
2022-11-01T01:25:31.475Z,12.27
2022-11-01T01:32:59.589Z,14.83
2022-11-01T01:35:28.100Z,12.90
2022-11-01T01:38:03.045Z,12.60
2022-11-01T01:40:50.888Z,12.83
2022-11-01T01:45:19.645Z,14.73
2022-11-01T01:47:34.443Z,11.50
2022-11-01T02:06:29.229Z,12.47
2022-11-01T02:09:24.203Z,12.67
2022-11-01T02:11:58.589Z,13.20
2022-11-01T02:14:42.048Z,12.80
2022-11-01T02:17:18.719Z,12.00
2022-11-01T02:20:24.561Z,12.60
2022-11-01T02:23:34.555Z,11.50
2022-11-01T02:26:17.112Z,12.90
2022-11-01T02:29:01.741Z,11.40
2022-11-01T02:31:57.323Z,12.20
2022-11-01T02:34:34.356Z,12.17
2022-11-01T02:37:10.570Z,12.83
2022-11-01T02:39:44.052Z,11.30
2022-11-01T02:42:25.467Z,13.20
2022-11-01T02:45:03.097Z,12.33
2022-11-01T02:47:33.369Z,12.30
2022-11-01T02:50:14.103Z,12.67
2022-11-01T02:52:42.697Z,12.57
2022-11-01T02:55:29.895Z,12.20
2022-11-01T02:58:00.316Z,11.97
2022-11-01T03:00:32.665Z,12.43
2022-11-01T03:03:08.864Z,11.80
2022-11-01T03:05:47.064Z,11.70
2022-11-01T03:08:20.354Z,11.43
2022-11-01T03:11:07.692Z,13.27
2022-11-01T03:13:54.742Z,12.30
2022-11-01T03:16:32.247Z,12.50
2022-11-01T03:19:14.736Z,12.07
2022-11-01T03:21:49.962Z,12.57
2022-11-01T03:24:24.156Z,12.10
2022-11-01T03:27:02.155Z,12.70
2022-11-01T03:29:32.887Z,12.37
2022-11-01T03:32:04.267Z,11.20
2022-11-01T03:34:35.614Z,11.00
2022-11-01T03:37:12.678Z,12.00
2022-11-01T03:39:47.971Z,11.90
2022-11-01T03:42:20.270Z,11.80
2022-11-01T03:44:51.484Z,11.30
2022-11-01T03:47:21.392Z,11.37
2022-11-01T03:49:49.663Z,11.87
2022-11-01T03:52:19.543Z,10.90
2022-11-01T03:54:48.073Z,10.90
2022-11-01T03:57:16.582Z,10.40
2022-11-01T03:59:44.847Z,11.20
2022-11-01T04:02:13.265Z,10.20
2022-11-01T04:04:41.529Z,10.40
2022-11-01T04:07:09.835Z,9.50
2022-11-01T04:09:39.729Z,10.33
2022-11-01T04:12:09.764Z,10.10
2022-11-01T04:14:55.343Z,9.80
2022-11-01T04:17:40.598Z,10.40
2022-11-01T04:20:27.576Z,9.30
2022-11-01T04:22:55.810Z,9.47
2022-11-01T04:25:25.685Z,10.07
2022-11-01T04:27:56.914Z,9.77
2022-11-01T04:30:25.844Z,9.00
2022-11-01T04:32:54.355Z,9.40
2022-11-01T04:35:22.940Z,9.97
2022-11-01T04:37:57.788Z,10.07
2022-11-01T04:40:31.178Z,10.53
2022-11-01T04:45:58.147Z,8.60
2022-11-01T04:51:29.421Z,10.40
2022-11-01T04:53:57.756Z,9.53
2022-11-01T04:56:27.590Z,9.00
2022-11-01T04:58:55.884Z,8.53
2022-11-01T05:01:24.528Z,9.50
2022-11-01T05:03:52.876Z,8.90
2022-11-01T05:06:21.195Z,9.60
2022-11-01T05:08:50.135Z,9.53
2022-11-01T05:11:18.224Z,9.10
2022-11-01T05:13:47.795Z,9.03
2022-11-01T05:16:20.794Z,9.10
2022-11-01T05:18:50.179Z,9.60
2022-11-01T05:21:18.687Z,9.53
2022-11-01T05:23:49.540Z,9.13
2022-11-01T05:26:17.944Z,10.03
2022-11-01T05:28:48.076Z,9.33
2022-11-01T05:31:16.419Z,9.63
2022-11-01T05:33:46.400Z,8.90
2022-11-01T05:36:14.639Z,10.13
2022-11-01T05:38:42.849Z,11.40
2022-11-01T05:41:11.232Z,11.67
2022-11-01T05:43:39.374Z,11.57
2022-11-01T05:46:09.684Z,11.73
2022-11-01T05:48:38.026Z,12.60
2022-11-01T05:51:06.579Z,11.63
2022-11-01T05:53:35.669Z,13.50
2022-11-01T05:56:04.063Z,13.23
2022-11-01T05:58:32.572Z,12.90
2022-11-01T06:01:02.071Z,12.83
2022-11-01T06:03:32.211Z,14.43
2022-11-01T06:06:01.008Z,14.63
2022-11-01T06:08:29.613Z,15.10
2022-11-01T06:11:20.842Z,13.57
2022-11-01T06:13:50.530Z,15.00
2022-11-01T06:16:18.824Z,14.20
2022-11-01T06:18:48.642Z,14.37
2022-11-01T06:21:17.274Z,14.83
2022-11-01T06:23:48.758Z,15.27
2022-11-01T06:26:18.141Z,14.10
2022-11-01T06:28:47.100Z,13.83
2022-11-01T06:31:15.768Z,13.50
2022-11-01T06:33:44.197Z,14.40
2022-11-01T06:36:14.272Z,14.20
2022-11-01T06:38:42.376Z,13.23
2022-11-01T06:41:10.416Z,12.80
2022-11-01T06:43:38.772Z,12.00
2022-11-01T06:46:07.779Z,13.23
2022-11-01T06:48:36.282Z,13.33
2022-11-01T06:51:04.847Z,12.70
2022-11-01T06:53:34.853Z,11.10
2022-11-01T06:56:03.447Z,12.70
2022-11-01T06:58:31.545Z,11.80
2022-11-01T07:01:02.230Z,12.17
2022-11-01T07:03:30.544Z,11.23
2022-11-01T07:06:01.492Z,11.73
2022-11-01T07:08:30.986Z,11.77
2022-11-01T07:11:06.327Z,11.37
2022-11-01T07:13:37.396Z,11.70
2022-11-01T07:16:06.789Z,11.50
2022-11-01T07:18:35.152Z,10.57
2022-11-01T07:21:04.332Z,10.40
2022-11-01T07:23:32.937Z,10.20
2022-11-01T07:26:01.316Z,9.97
2022-11-01T07:28:31.240Z,11.47
2022-11-01T07:30:59.529Z,10.77
2022-11-01T07:33:27.984Z,10.33
2022-11-01T07:35:56.146Z,10.07
2022-11-01T07:38:24.746Z,10.17
2022-11-01T07:40:54.818Z,8.80
2022-11-01T07:43:23.715Z,8.97
2022-11-01T07:45:53.825Z,10.33
2022-11-01T07:48:21.946Z,9.50
2022-11-01T07:50:50.135Z,8.70
2022-11-01T07:53:20.667Z,8.93
2022-11-01T07:55:49.014Z,9.50
2022-11-01T07:58:17.899Z,9.63
2022-11-01T08:00:48.531Z,7.83
2022-11-01T08:03:20.678Z,9.80
2022-11-01T08:05:51.067Z,8.30
2022-11-01T08:08:19.934Z,8.60
2022-11-01T08:11:06.876Z,9.30
2022-11-01T08:13:35.142Z,7.70
2022-11-01T08:16:03.973Z,8.40
2022-11-01T08:18:34.880Z,11.20
2022-11-01T08:21:03.322Z,12.50
2022-11-01T08:23:34.676Z,8.30
2022-11-01T08:26:04.978Z,8.40
2022-11-01T08:28:33.003Z,8.10
2022-11-01T08:31:01.271Z,8.73
2022-11-01T08:33:29.624Z,6.80
2022-11-01T08:35:59.501Z,7.73
2022-11-01T08:38:28.079Z,7.70
2022-11-01T08:40:56.667Z,7.47
2022-11-01T08:43:25.151Z,7.03
2022-11-01T08:45:55.040Z,8.97
2022-11-01T08:48:28.224Z,7.40
2022-11-01T08:50:56.988Z,7.37
2022-11-01T08:53:27.524Z,7.00
2022-11-01T08:55:57.232Z,7.53
2022-11-01T08:58:26.174Z,7.90
2022-11-01T09:00:54.651Z,7.20
2022-11-01T09:03:23.242Z,8.00
2022-11-01T09:05:52.191Z,6.53
2022-11-01T09:08:24.887Z,7.60
2022-11-01T09:11:10.455Z,7.37
2022-11-01T09:13:38.847Z,6.97
2022-11-01T09:16:08.749Z,6.60
2022-11-01T09:18:37.681Z,6.13
2022-11-01T09:21:07.341Z,6.73
2022-11-01T09:23:36.309Z,7.53
2022-11-01T09:26:05.423Z,18.40
2022-11-01T09:28:36.038Z,6.80
2022-11-01T09:31:20.102Z,6.37
2022-11-01T09:33:49.617Z,5.90
2022-11-01T09:36:18.150Z,6.00
2022-11-01T09:38:46.517Z,5.03
2022-11-01T09:41:29.297Z,5.37
2022-11-01T09:44:00.935Z,5.50
2022-11-01T09:46:32.770Z,4.70
2022-11-01T09:49:03.609Z,4.70
2022-11-01T09:51:33.493Z,4.03
2022-11-01T09:54:04.923Z,3.90
2022-11-01T09:56:44.427Z,2.63
2022-11-01T09:59:25.553Z,2.57
2022-11-01T10:02:08.706Z,2.00
2022-11-01T10:05:19.068Z,2.40
2022-11-01T10:08:00.451Z,2.10
2022-11-01T10:11:03.560Z,1.40
2022-11-01T10:13:46.582Z,2.07
2022-11-01T10:16:24.102Z,3.73
2022-11-01T10:19:06.742Z,1.97
2022-11-01T10:21:43.240Z,1.40
2022-11-01T10:24:23.879Z,1.20
2022-11-01T10:26:58.392Z,0.77
2022-11-01T10:29:35.271Z,1.00
2022-11-01T10:32:10.707Z,0.90
2022-11-01T10:34:40.966Z,1.20
2022-11-01T10:37:19.634Z,1.53
2022-11-01T10:40:01.357Z,1.10
2022-11-01T10:42:34.150Z,0.87
2022-11-01T10:45:07.617Z,0.80
2022-11-01T10:47:37.596Z,0.70
2022-11-01T10:50:14.826Z,0.90
2022-11-01T10:52:48.757Z,1.00
2022-11-01T10:55:21.984Z,0.60
2022-11-01T10:58:04.017Z,1.93
2022-11-01T11:00:36.869Z,3.77
2022-11-01T11:03:17.159Z,1.00
2022-11-01T11:05:46.780Z,0.90
2022-11-01T11:08:17.982Z,0.40
2022-11-01T11:10:49.834Z,0.60
2022-11-01T11:13:23.069Z,0.93
2022-11-01T11:16:06.319Z,0.90
2022-11-01T11:18:43.481Z,0.87
2022-11-01T11:21:17.711Z,1.03
2022-11-01T11:23:48.292Z,0.90
2022-11-01T11:26:19.817Z,0.83
2022-11-01T11:29:03.030Z,0.73
2022-11-01T11:31:38.848Z,0.87
2022-11-01T11:34:39.711Z,0.60
2022-11-01T11:37:40.262Z,0.90
2022-11-01T11:40:22.645Z,0.90
2022-11-01T11:42:58.079Z,0.80
2022-11-01T11:45:36.393Z,0.93
2022-11-01T11:48:18.001Z,0.83
2022-11-01T11:50:53.930Z,1.00
2022-11-01T11:53:26.577Z,0.87
2022-11-01T11:56:04.418Z,0.90
2022-11-01T11:58:37.276Z,1.03
2022-11-01T12:01:08.271Z,0.60
2022-11-01T12:03:46.418Z,1.20
2022-11-01T12:06:21.442Z,0.80
2022-11-01T12:08:51.084Z,1.20
2022-11-01T12:11:19.956Z,1.50
2022-11-01T12:14:03.039Z,0.60
2022-11-01T12:16:32.132Z,1.20
2022-11-01T12:19:02.654Z,1.23
2022-11-01T12:21:36.721Z,1.40
2022-11-01T12:24:16.419Z,1.10
2022-11-01T12:26:45.807Z,1.00
2022-11-01T12:29:23.886Z,0.63
2022-11-01T12:31:58.225Z,0.80
2022-11-01T12:34:31.185Z,1.60
2022-11-01T12:37:07.195Z,1.77
2022-11-01T12:39:44.945Z,0.90
2022-11-01T12:42:20.438Z,0.93
2022-11-01T12:44:53.214Z,0.80
2022-11-01T12:47:25.962Z,0.93
2022-11-01T12:50:00.008Z,1.20
2022-11-01T12:52:34.945Z,1.00
2022-11-01T12:55:09.219Z,1.17
2022-11-01T12:57:37.816Z,4.80
2022-11-01T13:00:07.832Z,3.90
2022-11-01T13:02:56.651Z,0.80
2022-11-01T13:05:30.785Z,0.90
2022-11-01T13:08:09.701Z,1.13
2022-11-01T13:13:22.784Z,1.00
2022-11-01T13:16:05.595Z,1.93
2022-11-01T13:18:45.107Z,0.90
2022-11-01T13:21:20.747Z,2.20
2022-11-01T13:23:58.001Z,0.87
2022-11-01T13:26:31.546Z,3.70
2022-11-01T13:29:09.642Z,0.80
2022-11-01T13:32:02.201Z,0.90
2022-11-01T13:34:40.826Z,1.03
2022-11-01T13:37:15.137Z,1.00
2022-11-01T13:39:59.261Z,0.80
2022-11-01T13:42:33.115Z,0.80
2022-11-01T13:45:21.159Z,0.80
2022-11-01T13:47:57.052Z,0.70
2022-11-01T13:50:59.865Z,1.07
2022-11-01T13:53:33.495Z,0.80
2022-11-01T13:56:16.540Z,0.90
2022-11-01T13:58:47.087Z,0.90
2022-11-01T14:01:32.211Z,2.97
2022-11-01T14:04:48.797Z,0.90
2022-11-01T14:07:18.881Z,1.23
2022-11-01T14:09:49.685Z,0.87
2022-11-01T14:12:43.432Z,0.93
2022-11-01T14:15:24.460Z,1.23
2022-11-01T14:18:18.305Z,1.00
2022-11-01T14:20:54.027Z,1.10
2022-11-01T14:23:56.017Z,0.90
2022-11-01T14:26:38.150Z,0.80
2022-11-01T14:29:12.431Z,0.60
2022-11-01T14:31:41.824Z,0.93
2022-11-01T14:34:21.948Z,1.03
2022-11-01T14:36:52.388Z,1.30
2022-11-01T14:39:27.461Z,0.90
2022-11-01T14:41:59.219Z,0.90
2022-11-01T14:44:33.813Z,1.30
2022-11-01T14:47:08.129Z,1.50
2022-11-01T14:49:43.604Z,0.70
2022-11-01T14:52:21.552Z,0.80
2022-11-01T14:54:57.114Z,1.10
2022-11-01T14:57:30.310Z,1.10
2022-11-01T14:59:59.979Z,1.17
2022-11-01T15:02:30.537Z,1.07
2022-11-01T15:05:01.651Z,1.73
2022-11-01T15:07:34.114Z,1.30
2022-11-01T15:10:05.717Z,0.93
2022-11-01T15:12:41.486Z,1.00
2022-11-01T15:15:15.957Z,0.90
2022-11-01T15:17:50.934Z,0.70
2022-11-01T15:20:21.513Z,1.43
2022-11-01T15:22:52.194Z,1.50
2022-11-01T15:25:24.399Z,1.40
2022-11-01T15:27:55.588Z,1.40
2022-11-01T15:30:27.329Z,1.00
2022-11-01T15:33:15.923Z,1.23
2022-11-01T15:35:44.816Z,0.60
2022-11-01T15:38:20.590Z,1.23
2022-11-01T15:40:50.330Z,1.70
2022-11-01T15:43:23.444Z,4.13
2022-11-01T15:45:56.411Z,1.67
2022-11-01T15:48:28.468Z,2.30
2022-11-01T15:51:00.718Z,1.57
2022-11-01T15:53:37.749Z,1.13
2022-11-01T15:56:11.946Z,0.87
2022-11-01T15:58:47.245Z,1.40
2022-11-01T16:01:19.641Z,2.30
2022-11-01T16:03:54.323Z,3.30
2022-11-01T16:06:28.251Z,2.50
2022-11-01T16:09:01.858Z,2.20
2022-11-01T16:11:33.755Z,2.43
2022-11-01T16:14:08.528Z,2.13
2022-11-01T16:17:10.375Z,2.00
2022-11-01T16:19:42.787Z,2.00
2022-11-01T16:22:35.188Z,1.93
2022-11-01T16:25:18.334Z,1.77
2022-11-01T16:27:59.257Z,1.70
2022-11-01T16:30:39.319Z,1.40
2022-11-01T16:33:27.299Z,2.07
2022-11-01T16:35:56.909Z,1.50
2022-11-01T16:38:43.490Z,2.30
2022-11-01T16:41:20.046Z,1.30
2022-11-01T16:43:50.035Z,2.77
2022-11-01T16:46:20.662Z,1.33
2022-11-01T16:48:55.118Z,1.37
2022-11-01T16:51:28.109Z,1.70
2022-11-01T16:53:58.437Z,1.67
2022-11-01T16:56:38.428Z,2.17
2022-11-01T16:59:09.496Z,1.67
2022-11-01T17:01:39.646Z,2.80
2022-11-01T17:04:10.492Z,2.40
2022-11-01T17:06:39.398Z,4.27
2022-11-01T17:09:14.043Z,2.83
2022-11-01T17:11:47.903Z,2.90
2022-11-01T17:14:16.220Z,2.50
2022-11-01T17:16:47.802Z,2.30
2022-11-01T17:19:22.612Z,2.20
2022-11-01T17:21:53.070Z,2.30
2022-11-01T17:24:25.809Z,3.20
2022-11-01T17:26:56.147Z,3.33
2022-11-01T17:29:25.110Z,2.53
2022-11-01T17:31:55.123Z,2.23
2022-11-01T17:34:24.318Z,1.67
2022-11-01T17:36:52.806Z,1.53
2022-11-01T17:39:22.171Z,2.17
2022-11-01T17:41:50.624Z,2.03
2022-11-01T17:44:19.241Z,1.83
2022-11-01T17:46:47.742Z,1.73
2022-11-01T17:49:21.729Z,2.10
2022-11-01T17:51:54.439Z,1.63
2022-11-01T17:54:23.235Z,2.03
2022-11-01T17:56:51.784Z,1.60
2022-11-01T17:59:20.183Z,1.80
2022-11-01T18:01:48.677Z,2.00
2022-11-01T18:04:19.295Z,1.77
2022-11-01T18:06:48.229Z,0.97
2022-11-01T18:09:22.794Z,2.10
2022-11-01T18:11:56.490Z,1.70
2022-11-01T18:14:40.925Z,1.20
2022-11-01T18:17:34.865Z,1.97
2022-11-01T18:20:10.010Z,1.67
2022-11-01T18:22:46.361Z,1.30
2022-11-01T18:25:27.172Z,1.60
2022-11-01T18:27:57.670Z,1.50
2022-11-01T18:30:26.403Z,1.77
2022-11-01T18:33:00.242Z,1.90
2022-11-01T18:35:35.443Z,1.87
2022-11-01T18:38:17.960Z,1.50
2022-11-01T18:41:00.571Z,1.90
2022-11-01T18:43:32.113Z,1.50
2022-11-01T18:48:50.082Z,1.30
2022-11-01T18:51:26.629Z,1.40
2022-11-01T18:53:58.058Z,1.50
2022-11-01T18:56:26.593Z,1.53
2022-11-01T18:58:56.041Z,1.17
2022-11-01T19:01:32.040Z,1.93
2022-11-01T19:04:03.652Z,2.00
2022-11-01T19:06:34.368Z,1.60
2022-11-01T19:09:16.292Z,2.17
2022-11-01T19:11:44.573Z,1.50
2022-11-01T19:14:17.154Z,1.67
2022-11-01T19:16:46.154Z,1.50
2022-11-01T19:19:18.820Z,2.30
2022-11-01T19:21:48.977Z,1.70
2022-11-01T19:24:29.223Z,2.00
2022-11-01T19:26:58.732Z,1.80
2022-11-01T19:29:30.462Z,1.77
2022-11-01T19:32:01.316Z,1.60
2022-11-01T19:34:33.097Z,1.90
2022-11-01T19:37:06.180Z,1.60
2022-11-01T19:39:39.169Z,2.40
2022-11-01T19:42:14.741Z,2.20
2022-11-01T19:44:43.850Z,2.33
2022-11-01T19:47:36.928Z,2.33
2022-11-01T19:50:18.915Z,4.63
2022-11-01T19:52:49.408Z,6.17
2022-11-01T19:55:39.192Z,4.20
2022-11-01T19:58:26.193Z,3.97
2022-11-01T20:01:22.914Z,3.60
2022-11-01T20:03:56.874Z,3.30
2022-11-01T20:06:35.273Z,3.07
2022-11-01T20:09:10.248Z,3.17
2022-11-01T20:11:41.605Z,4.60
2022-11-01T20:14:10.043Z,3.90
2022-11-01T20:16:38.479Z,3.70
2022-11-01T20:19:06.811Z,3.90
2022-11-01T20:21:35.257Z,3.50
2022-11-01T20:24:05.920Z,3.73
2022-11-01T20:26:34.365Z,3.90
2022-11-01T20:29:02.973Z,3.73
2022-11-01T20:31:33.051Z,4.07
2022-11-01T20:34:01.491Z,3.67
2022-11-01T20:36:30.099Z,4.37
2022-11-01T20:38:58.404Z,3.83
2022-11-01T20:41:28.450Z,3.53
2022-11-01T20:43:57.759Z,3.50
2022-11-01T20:46:25.944Z,4.87
2022-11-01T20:48:54.032Z,3.37
2022-11-01T20:51:22.303Z,4.87
2022-11-01T20:53:50.697Z,4.60
2022-11-01T20:56:19.442Z,4.70
2022-11-01T20:58:49.807Z,5.67
2022-11-01T21:01:22.063Z,5.43
2022-11-01T21:03:50.195Z,4.03
2022-11-01T21:06:21.566Z,4.00
2022-11-01T21:08:50.903Z,2.90
2022-11-01T21:11:25.556Z,3.77
2022-11-01T21:13:55.834Z,2.40
2022-11-01T21:16:26.777Z,3.30
2022-11-01T21:18:59.912Z,4.00
2022-11-01T21:21:42.460Z,3.87
2022-11-01T21:24:36.388Z,3.00
2022-11-01T21:30:02.313Z,2.33
2022-11-01T21:32:37.706Z,2.40
2022-11-01T21:35:38.758Z,2.40
2022-11-01T21:38:39.675Z,1.90
2022-11-01T21:41:32.846Z,1.93
2022-11-01T21:44:15.623Z,1.83
2022-11-01T21:46:48.880Z,3.27
2022-11-01T21:49:31.186Z,2.00
2022-11-01T21:52:01.063Z,2.40
2022-11-01T21:54:30.362Z,2.07
2022-11-01T21:56:59.255Z,1.57
2022-11-01T21:59:28.303Z,1.80
2022-11-01T22:01:59.917Z,1.80
2022-11-01T22:04:30.275Z,3.07
2022-11-01T22:06:58.834Z,2.37
2022-11-01T22:09:27.371Z,4.97
2022-11-01T22:11:55.874Z,2.00
2022-11-01T22:14:24.445Z,1.80
2022-11-01T22:16:52.852Z,2.10
2022-11-01T22:19:23.104Z,2.07
2022-11-01T22:21:51.426Z,2.00
2022-11-01T22:24:19.902Z,2.97
2022-11-01T22:26:48.238Z,2.00
2022-11-01T22:29:16.638Z,3.20
2022-11-01T22:31:44.964Z,2.30
2022-11-01T22:34:13.512Z,2.90
2022-11-01T22:36:43.769Z,2.97
2022-11-01T22:39:24.081Z,1.77
2022-11-01T22:41:52.604Z,2.00
2022-11-01T22:44:26.713Z,2.00
2022-11-01T22:46:59.237Z,2.65
2022-11-01T22:49:30.209Z,2.10
2022-11-01T22:52:08.387Z,2.03
2022-11-01T22:54:40.215Z,2.03
2022-11-01T22:57:21.628Z,2.00
2022-11-01T22:59:54.850Z,2.20
2022-11-01T23:02:29.538Z,1.67
2022-11-01T23:05:25.645Z,1.97
2022-11-01T23:07:57.320Z,1.70
2022-11-01T23:10:34.202Z,2.63
2022-11-01T23:13:36.907Z,2.00
2022-11-01T23:16:21.411Z,2.20
2022-11-01T23:18:50.170Z,2.17
2022-11-01T23:21:19.901Z,1.77
2022-11-01T23:23:50.195Z,2.30
2022-11-01T23:26:20.904Z,1.50
2022-11-01T23:28:54.541Z,2.20
2022-11-01T23:31:24.948Z,2.40
2022-11-01T23:33:53.566Z,1.93
2022-11-01T23:36:26.524Z,1.60
2022-11-01T23:39:01.263Z,2.63
2022-11-01T23:41:34.668Z,1.70
2022-11-01T23:44:13.541Z,1.67
2022-11-01T23:46:43.110Z,1.80
2022-11-01T23:49:18.411Z,1.60
2022-11-01T23:51:49.479Z,1.70
2022-11-01T23:54:24.053Z,1.53
2022-11-01T23:56:52.535Z,1.57
2022-11-01T23:59:34.375Z,1.60
